»·PEaware :: WAT380 KDEN-KLAX

WAT380 :: KDEN-KLAX

FLIGHT INFORMATION

Flight Status: Arrived
Operator:
Walker Air Transport
More flights by this operator :: More flights under this callsign
Pilot: Spencer M. (27733)
Aircraft: BOEING 767-300
(B763)
More flights by this aircraft type
Origin: KDEN Denver Intl
United States
Destination: KLAX Los Angeles Intl
United States
More flights between these airports :: More routes between these airports
Route: CONNR7 WERNR ZAKRY CHESZ Q88 HAKMN ANJLL4
File this flight plan on PilotEdge
Remarks:
Altitude:
(Current/Filed)
38,000ft
Speed:
(Current/Filed)
440kts
Departed: 23-Mar-21 07:28 PM
Arrived: 23-Mar-21 09:28 PM
Distance/Time
Traveled:
748nm/1:59
Distance/Time
To Go:
Arrived

Flight Plot

Page will automatically refresh every two minutes.

Flight plan parsing failed; only flown route is shown


Map Options




Map Legend


Flown Route
Filed Route
Departure Airport
Arrival Airport
Navaid (VOR, NDB)
Fix

Horizontal Profiles

Position Reports

Time Latitude Longitude Heading Altitude Ground
Speed
23-Mar-21 19:00 39.853291 -104.677117 12 5445ft 0kts
23-Mar-21 19:01 39.853291 -104.677117 12 5445ft 0kts
23-Mar-21 19:02 39.853291 -104.677117 12 5445ft 0kts
23-Mar-21 19:03 39.853291 -104.677117 12 5445ft 0kts
23-Mar-21 19:04 39.853291 -104.677117 12 5445ft 0kts
23-Mar-21 19:05 39.853291 -104.677117 12 5445ft 0kts
23-Mar-21 19:06 39.853291 -104.677117 12 5445ft 0kts
23-Mar-21 19:07 39.853291 -104.677117 12 5445ft 0kts
23-Mar-21 19:08 39.853291 -104.677117 12 5445ft 0kts
23-Mar-21 19:09 39.853291 -104.677117 12 5445ft 0kts
23-Mar-21 19:10 39.853291 -104.677117 12 5445ft 0kts
23-Mar-21 19:11 39.853291 -104.677117 12 5445ft 0kts
23-Mar-21 19:12 39.853291 -104.677117 12 5445ft 0kts
23-Mar-21 19:13 39.853291 -104.677117 12 5445ft 0kts
23-Mar-21 19:14 39.853291 -104.677117 12 5445ft 0kts
23-Mar-21 19:15 39.853113 -104.677125 343 5445ft 2kts
23-Mar-21 19:16 39.852796 -104.676543 268 5445ft 2kts
23-Mar-21 19:17 39.852798 -104.676452 269 5445ft 0kts
23-Mar-21 19:18 39.852798 -104.676452 269 5445ft 0kts
23-Mar-21 19:19 39.852791 -104.677398 269 5445ft 6kts
23-Mar-21 19:20 39.852818 -104.680186 271 5445ft 8kts
23-Mar-21 19:21 39.852909 -104.683766 224 5445ft 12kts
23-Mar-21 19:22 39.848616 -104.684109 180 5445ft 19kts
23-Mar-21 19:23 39.842643 -104.684171 180 5445ft 11kts
23-Mar-21 19:24 39.841831 -104.684178 180 5445ft 0kts
23-Mar-21 19:25 39.841831 -104.684178 180 5445ft 0kts
23-Mar-21 19:26 39.841118 -104.684183 183 5445ft 7kts
23-Mar-21 19:27 39.840724 -104.688130 271 5445ft 70kts
23-Mar-21 19:28 39.840612 -104.736139 271 5567ft 184kts
23-Mar-21 19:29 39.841057 -104.811035 277 6307ft 225kts
23-Mar-21 19:30 39.842229 -104.904109 264 8446ft 270kts
23-Mar-21 19:31 39.823375 -105.002819 256 10320ft 318kts
23-Mar-21 19:32 39.799591 -105.121323 255 13289ft 348kts
23-Mar-21 19:33 39.774587 -105.245114 255 16495ft 360kts
23-Mar-21 19:34 39.748709 -105.372247 254 19442ft 371kts
23-Mar-21 19:35 39.721857 -105.503284 253 22167ft 382kts
23-Mar-21 19:36 39.694042 -105.639009 252 24102ft 391kts
23-Mar-21 19:37 39.673017 -105.780454 256 26336ft 408kts
23-Mar-21 19:38 39.652826 -105.928049 257 28368ft 423kts
23-Mar-21 19:39 39.631697 -106.080650 257 30206ft 439kts
23-Mar-21 19:40 39.609845 -106.236973 258 32306ft 441kts
23-Mar-21 19:41 39.587788 -106.393131 259 34121ft 440kts
23-Mar-21 19:42 39.565728 -106.547822 259 35772ft 433kts
23-Mar-21 19:43 39.538708 -106.698906 248 36961ft 431kts
23-Mar-21 19:44 39.494329 -106.842240 248 37895ft 428kts
23-Mar-21 19:45 39.449341 -106.985088 248 37902ft 428kts
23-Mar-21 19:46 39.404250 -107.127401 248 37908ft 428kts
23-Mar-21 19:47 39.356382 -107.267814 245 37908ft 429kts
23-Mar-21 19:48 39.304795 -107.406692 245 37907ft 430kts
23-Mar-21 19:49 39.253079 -107.545434 245 37907ft 430kts
23-Mar-21 19:50 39.201039 -107.684404 245 37910ft 431kts
23-Mar-21 19:51 39.148808 -107.823232 245 37909ft 431kts
23-Mar-21 19:52 39.096558 -107.961485 245 37909ft 430kts
23-Mar-21 19:53 39.044105 -108.099616 246 37894ft 432kts
23-Mar-21 19:54 38.991126 -108.238523 246 37862ft 432kts
23-Mar-21 19:55 38.938220 -108.376589 246 37853ft 432kts
23-Mar-21 19:56 38.885237 -108.514213 246 37841ft 431kts
23-Mar-21 19:57 38.831935 -108.652040 246 37840ft 431kts
23-Mar-21 19:58 38.778526 -108.789541 246 37843ft 431kts
23-Mar-21 19:59 38.725048 -108.926591 246 37872ft 431kts
23-Mar-21 20:00 38.671178 -109.064026 246 37868ft 431kts
23-Mar-21 20:01 38.617497 -109.200366 246 37861ft 431kts
23-Mar-21 20:02 38.563557 -109.336760 247 37860ft 431kts
23-Mar-21 20:03 38.509234 -109.473509 247 37859ft 431kts
23-Mar-21 20:04 38.454885 -109.609727 247 37860ft 431kts
23-Mar-21 20:05 38.400411 -109.745661 247 37864ft 432kts
23-Mar-21 20:06 38.345720 -109.881533 247 37878ft 432kts
23-Mar-21 20:07 38.290863 -110.017222 247 37901ft 431kts
23-Mar-21 20:08 38.235138 -110.152090 247 37925ft 431kts
23-Mar-21 20:09 38.179190 -110.286509 247 37927ft 430kts
23-Mar-21 20:10 38.123100 -110.420704 247 37927ft 430kts
23-Mar-21 20:11 38.066961 -110.554446 247 37926ft 429kts
23-Mar-21 20:12 38.010946 -110.687327 246 37933ft 428kts
23-Mar-21 20:13 37.954884 -110.819739 246 37932ft 426kts
23-Mar-21 20:14 37.898825 -110.951632 246 37928ft 424kts
23-Mar-21 20:15 37.843001 -111.082422 247 37907ft 423kts
23-Mar-21 20:16 37.787053 -111.212967 247 37894ft 422kts
23-Mar-21 20:17 37.731344 -111.342432 247 37887ft 421kts
23-Mar-21 20:18 37.675423 -111.471854 247 37885ft 420kts
23-Mar-21 20:19 37.619514 -111.600725 247 37884ft 419kts
23-Mar-21 20:20 37.563371 -111.729629 246 37891ft 419kts
23-Mar-21 20:21 37.507250 -111.857700 244 37890ft 420kts
23-Mar-21 20:22 37.438803 -111.977996 239 37905ft 424kts
23-Mar-21 20:23 37.369240 -112.096776 239 37918ft 421kts
23-Mar-21 20:24 37.299994 -112.214896 239 37917ft 421kts
23-Mar-21 20:25 37.230727 -112.332602 239 37919ft 420kts
23-Mar-21 20:26 37.161270 -112.450223 239 37922ft 419kts
23-Mar-21 20:27 37.092243 -112.566715 239 37925ft 418kts
23-Mar-21 20:28 37.023020 -112.683198 239 37935ft 418kts
23-Mar-21 20:29 36.953887 -112.799201 239 37942ft 416kts
23-Mar-21 20:30 36.884710 -112.914892 239 37920ft 416kts
23-Mar-21 20:31 36.815468 -113.030298 239 37909ft 415kts
23-Mar-21 20:32 36.746228 -113.145302 239 37905ft 415kts
23-Mar-21 20:33 36.677151 -113.259641 239 37904ft 413kts
23-Mar-21 20:34 36.608777 -113.374307 241 37906ft 411kts
23-Mar-21 20:35 36.543071 -113.490232 241 37908ft 411kts
23-Mar-21 20:36 36.477365 -113.605626 241 37910ft 409kts
23-Mar-21 20:37 36.411613 -113.720713 240 37921ft 409kts
23-Mar-21 20:38 36.345833 -113.835460 240 37919ft 408kts
23-Mar-21 20:39 36.280053 -113.949819 240 37919ft 408kts
23-Mar-21 20:40 36.214455 -114.063482 240 37924ft 407kts
23-Mar-21 20:41 36.148516 -114.177363 240 37936ft 407kts
23-Mar-21 20:42 36.081769 -114.290417 236 37943ft 411kts
23-Mar-21 20:43 36.005766 -114.396413 235 37943ft 413kts
23-Mar-21 20:44 35.928785 -114.502887 235 37945ft 412kts
23-Mar-21 20:45 35.852422 -114.608141 235 37943ft 411kts
23-Mar-21 20:46 35.776170 -114.712926 234 37955ft 412kts
23-Mar-21 20:47 35.700002 -114.817255 234 37955ft 410kts
23-Mar-21 20:48 35.623689 -114.921653 234 37954ft 411kts
23-Mar-21 20:49 35.547551 -115.025652 234 37953ft 410kts
23-Mar-21 20:50 35.470391 -115.128788 233 37942ft 411kts
23-Mar-21 20:51 35.392421 -115.230582 233 37932ft 410kts
23-Mar-21 20:52 35.314302 -115.332273 233 37923ft 410kts
23-Mar-21 20:53 35.236220 -115.433613 233 37922ft 410kts
23-Mar-21 20:54 35.158016 -115.534807 233 37922ft 410kts
23-Mar-21 20:55 35.079633 -115.635528 233 37920ft 409kts
23-Mar-21 20:56 35.001002 -115.735969 232 37931ft 410kts
23-Mar-21 20:58 34.922017 -115.836562 232 37932ft 410kts
23-Mar-21 20:59 34.846128 -115.932913 233 36525ft 392kts
23-Mar-21 21:00 34.768184 -116.031714 232 34796ft 409kts
23-Mar-21 21:01 34.689024 -116.132565 232 32972ft 416kts
23-Mar-21 21:02 34.608668 -116.234638 232 31132ft 422kts
23-Mar-21 21:03 34.528312 -116.336359 233 29280ft 413kts
23-Mar-21 21:04 34.450138 -116.435073 233 27498ft 402kts
23-Mar-21 21:05 34.390088 -116.542857 249 25772ft 379kts
23-Mar-21 21:06 34.343520 -116.655126 249 24131ft 369kts
23-Mar-21 21:07 34.299140 -116.764916 249 22538ft 360kts
23-Mar-21 21:08 34.255853 -116.872323 249 20972ft 351kts
23-Mar-21 21:09 34.213618 -116.976900 250 19414ft 343kts
23-Mar-21 21:10 34.183998 -117.083244 257 17925ft 331kts
23-Mar-21 21:11 34.155505 -117.188076 256 16476ft 327kts
23-Mar-21 21:12 34.127098 -117.291295 256 15031ft 322kts
23-Mar-21 21:13 34.099530 -117.393150 257 13588ft 318kts
23-Mar-21 21:14 34.074245 -117.494012 255 11991ft 312kts
23-Mar-21 21:15 34.041489 -117.589524 251 10631ft 304kts
23-Mar-21 21:16 34.029262 -117.624629 251 10191ft 301kts
23-Mar-21 21:17 34.029262 -117.624629 251 10191ft 301kts
23-Mar-21 21:18 34.029262 -117.624629 251 10191ft 301kts
23-Mar-21 21:18 34.029262 -117.624629 251 10191ft 301kts
23-Mar-21 21:20 34.029262 -117.624629 251 10191ft 301kts
23-Mar-21 21:22 33.962719 -118.154134 262 3663ft 168kts
23-Mar-21 21:22 33.958155 -118.199701 262 2948ft 164kts
23-Mar-21 21:24 33.952428 -118.256473 262 2040ft 137kts
23-Mar-21 21:25 33.947722 -118.302594 264 1388ft 140kts
23-Mar-21 21:26 33.943016 -118.348675 263 689ft 137kts
23-Mar-21 21:26 33.939249 -118.385727 267 115ft 130kts
23-Mar-21 21:27 33.937678 -118.404948 301 134ft 11kts
23-Mar-21 21:28 33.939091 -118.405540 320 134ft 6kts

Navigation Log

Ident Type
Flight plan parsing failed, navigation log unavailable